Weather observations for the past three days for
Lake County Airport
Metric (Imperial)
Date Time (pdt) Wind (kph) Vis. (km) Weather Sky Cond. Temperature (ºC) Relative Humidity Wind Chill (°C) Heat Index (°C) Pressure Precipitation (cm)
Air Dwpt 6 hour altimeter (cm) sea level (mb) 1 hr 3 hr 6 hr
Max. Min.
04 16:53 N 33 G 44 16.09 A Few Clouds and Breezy FEW120 23.3 0 23.9 18.9 21% 75.67 1006.5
04 15:53 N 30 G 44 16.09 Fair CLR 23.9 -0.6 20% 24 75.72 1007.2
04 14:53 N 24 G 41 16.09 Fair CLR 22.8 -0.6 21% 75.79 1008.0
04 13:53 N 33 G 46 16.09 Fair and Breezy CLR 22.2 -1.1 21% 75.84 1008.7
04 12:53 N 28 G 43 16.09 Fair CLR 21.1 -0.6 23% 75.92 1009.1
04 11:53 N 24 16.09 Fair CLR 20.6 1.7 29% 75.97 1009.6
04 10:53 N 26 16.09 Fair CLR 18.9 1.1 18.9 2.8 30% 75.97 1009.9
04 09:53 N 26 G 37 16.09 Fair CLR 17.8 0.6 32% 75.97 1010.0
04 08:53 N 30 G 35 16.09 Fair CLR 16.7 1.1 35% 75.97 1010.1
04 07:53 N 22 16.09 Fair CLR 14.4 3.3 48% 75.97 1010.3
04 06:53 NW 9 16.09 Fair CLR 7.8 4.4 79% 6 75.97 1010.9
04 05:53 NW 17 16.09 Fair CLR 3.9 3.3 96% 0 75.95 1010.7
04 04:53 NW 11 16.09 Fair CLR 3.9 3.3 13.3 3.3 96% 1 75.97 1010.9
04 03:53 N 13 16.09 Fair CLR 3.9 2.8 93% 1 76 1011.2
04 02:53 N 11 16.09 Fair CLR 5 3.9 93% 3 76.02 1011.8
04 01:53 SE 9 16.09 Fair CLR 7.8 6.7 93% 6 76.02 1010.7
04 00:53 SE 19 16.09 Fair CLR 10.6 7.8 83% 76 1010.4
03 23:53 SE 22 16.09 Overcast OVC120 12.2 7.8 75% 76 1010.2
03 22:53 NW 7 16.09 Mostly Cloudy BKN110 13.3 2.2 23.3 12.8 47% 75.95 1009.5
03 21:53 N 11 16.09 Mostly Cloudy BKN110 13.3 2.8 49% 75.92 1009.4
03 20:53 NW 13 16.09 Overcast OVC110 14.4 3.3 48% 75.92 1009.1
03 19:53 NW 9 16.09 Mostly Cloudy BKN100 15.6 1.7 39% 75.9 1009.5
03 18:53 NE 15 16.09 Overcast FEW070 BKN090 OVC110 17.8 2.2 35% 75.9 1010.2
03 17:53 N 24 G 30 16.09 Mostly Cloudy BKN100 21.1 2.8 30% 75.92 1009.9
03 16:53 Vrbl 7 16.09 Partly Cloudy SCT110 22.2 1.7 23.3 18.3 26% 75.92 1009.6
03 15:53 W 15 16.09 Partly Cloudy FEW060 SCT090 22.2 2.8 28% 75.97 1010.4
03 14:53 S 19 16.09 Overcast FEW070 OVC090 18.9 3.9 37% 76.05 1012.0
03 13:53 NE 22 G 28 16.09 Partly Cloudy FEW060 SCT110 23.3 1.7 24% 76.05 1011.0
03 12:53 Vrbl 7 16.09 Mostly Cloudy BKN100 21.7 3.3 30% 76.07 1011.8
03 11:53 Vrbl 7 16.09 A Few Clouds FEW110 20 0.6 27% 76.15 1012.8
03 10:53 Vrbl 7 16.09 Fair CLR 20 2.2 21.1 5 31% 76.17 1013.2
03 09:53 E 7 16.09 Fair CLR 18.3 4.4 40% 76.2 1013.6
03 08:53 N 11 16.09 Fair CLR 17.2 3.9 41% 76.23 1013.6
03 07:53 NW 9 16.09 Fair CLR 12.2 4.4 59% 76.23 1014.4
03 06:53 N 11 16.09 Fair CLR 6.7 3.3 79% 5 76.23 1014.9
03 05:53 N 11 16.09 Mostly Cloudy BKN110 5.6 3.3 85% 3 76.25 1014.6
03 04:53 NW 9 16.09 Mostly Cloudy BKN110 7.2 3.3 9.4 6.1 77% 6 76.25 1014.4
03 03:53 NW 11 16.09 Partly Cloudy SCT110 6.7 3.3 79% 5 76.28 1014.9
03 02:53 N 15 16.09 Fair CLR 6.1 3.9 86% 3 76.28 1014.9
03 01:53 NW 9 16.09 Fair CLR 7.2 4.4 83% 6 76.3 1015.3
03 00:53 NW 11 16.09 Mostly Cloudy BKN100 7.8 4.4 79% 6 76.33 1015.6
02 23:53 NW 11 16.09 Fair CLR 8.3 5 80% 7 76.3 1015.3
02 22:53 N 7 16.09 Fair CLR 9.4 5 21.1 9.4 74% 9 76.33 1015.3
02 21:53 N 9 16.09 Mostly Cloudy BKN110 10 5.6 74% 9 76.3 1015.3
02 20:53 E 6 16.09 A Few Clouds FEW110 12.2 4.4 59% 76.28 1015.1
02 19:53 E 20 G 39 16.09 Light Rain FEW070 BKN090 BKN110 14.4 4.4 51% 76.2 1014.4
02 18:53 SW 22 16.09 Overcast FEW075 OVC100 16.7 0.6 34% 76.15 1014.3
02 17:53 S 15 16.09 Fair CLR 19.4 1.7 31% 76.1 1013.2
02 16:53 SE 17 16.09 Fair CLR 21.1 2.2 21.7 17.8 29% 76.1 1012.6
02 15:53 S 13 16.09 Fair CLR 20.6 1.7 29% 76.15 1013.5
02 14:53 S 17 16.09 Fair CLR 20 2.8 32% 76.23 1014.5
02 13:53 SE 19 16.09 Fair CLR 18.9 2.2 33% 76.25 1015.0
02 12:53 SE 17 16.09 Fair CLR 18.9 2.2 33% 76.28 1015.0
02 11:53 SE 19 16.09 A Few Clouds FEW065 17.8 0 30% 76.25 1014.6
02 10:53 SE 13 16.09 Fair CLR 18.3 0.6 18.3 3.3 31% 76.25 1014.6
02 09:53 Vrbl 6 16.09 Fair CLR 16.7 3.9 43% 76.25 1014.5
02 08:53 Calm 16.09 Fair CLR 13.3 3.9 53% 76.23 1014.5
02 07:53 W 7 16.09 Fair CLR 8.3 2.8 69% 7 76.2 1014.8
02 06:53 Calm 16.09 Fair CLR 4.4 2.2 86% 76.2 1014.7
02 05:53 NW 9 16.09 Fair CLR 3.9 1.1 82% 2 76.17 1013.9
02 04:53 N 13 16.09 Fair CLR 3.9 1.1 10.6 3.9 82% 1 76.17 1013.9
02 03:53 NW 15 16.09 Fair CLR 4.4 1.7 83% 1 76.2 1014.0
02 02:53 N 9 16.09 Fair CLR 4.4 1.7 83% 2 76.23 1014.6
02 01:53 N 11 16.09 Fair CLR 5 2.2 82% 3 76.25 1014.6
02 00:53 Calm 16.09 Partly Cloudy SCT110 6.1 2.8 80% 76.28 1015.0
01 23:53 SE 9 16.09 Fair CLR 10 3.3 63% 9 76.28 1014.5
01 22:53 NE 11 16.09 Fair CLR 7.8 2.8 21.1 7.2 71% 6 76.25 1014.7
01 21:53 SW 9 16.09 Fair CLR 10 2.2 59% 9 76.25 1014.5
01 20:53 E 15 16.09 Fair CLR 11.1 3.9 61% 76.2 1013.9
01 19:53 E 13 16.09 Fair CLR 13.3 5.6 60% 76.17 1013.7
01 18:53 SE 15 16.09 Fair CLR 17.8 4.4 41% 76.2 1014.5
01 17:53 SE 13 16.09 Fair CLR 20.6 1.1 27% 76.23 1015.0
Date Time (pdt) Wind (kph) Vis. (km) Weather Sky Cond. Air Dwpt Max. Min. Relative Humidity Wind Chill (°C) Heat Index (°C) altimeter (cm) sea level (mb) 1 hr 3 hr 6 hr
6 hour
Temperature (ºC) Pressure Precipitation (cm)